sensor_id;sensor_type;location;lat;lon;timestamp;temperature;humidity
47779;DHT22;33538;48.432;11.350;2023-03-11T00:00:50;6.40;79.00
47779;DHT22;33538;48.432;11.350;2023-03-11T00:03:19;6.40;79.30
47779;DHT22;33538;48.432;11.350;2023-03-11T00:05:46;6.40;79.30
47779;DHT22;33538;48.432;11.350;2023-03-11T00:08:15;6.40;79.30
47779;DHT22;33538;48.432;11.350;2023-03-11T00:10:43;6.40;79.30
47779;DHT22;33538;48.432;11.350;2023-03-11T00:13:12;6.40;78.90
47779;DHT22;33538;48.432;11.350;2023-03-11T00:15:41;6.40;78.50
47779;DHT22;33538;48.432;11.350;2023-03-11T00:18:08;6.40;78.50
47779;DHT22;33538;48.432;11.350;2023-03-11T00:20:36;6.30;78.50
47779;DHT22;33538;48.432;11.350;2023-03-11T00:23:04;6.40;78.50
47779;DHT22;33538;48.432;11.350;2023-03-11T00:25:33;6.40;78.30
47779;DHT22;33538;48.432;11.350;2023-03-11T00:28:00;6.30;78.30
47779;DHT22;33538;48.432;11.350;2023-03-11T00:30:27;6.30;78.00
47779;DHT22;33538;48.432;11.350;2023-03-11T00:32:57;6.30;77.60
47779;DHT22;33538;48.432;11.350;2023-03-11T00:35:25;6.30;77.20
47779;DHT22;33538;48.432;11.350;2023-03-11T00:37:54;6.30;77.00
47779;DHT22;33538;48.432;11.350;2023-03-11T00:40:24;6.20;77.10
47779;DHT22;33538;48.432;11.350;2023-03-11T00:42:51;6.20;77.00
47779;DHT22;33538;48.432;11.350;2023-03-11T00:45:19;6.20;76.90
47779;DHT22;33538;48.432;11.350;2023-03-11T00:47:46;6.20;76.60
47779;DHT22;33538;48.432;11.350;2023-03-11T00:50:17;6.20;76.80
47779;DHT22;33538;48.432;11.350;2023-03-11T00:52:45;6.20;76.70
47779;DHT22;33538;48.432;11.350;2023-03-11T00:55:13;6.30;76.80
47779;DHT22;33538;48.432;11.350;2023-03-11T00:57:40;6.20;76.50
47779;DHT22;33538;48.432;11.350;2023-03-11T01:00:11;6.10;76.50
47779;DHT22;33538;48.432;11.350;2023-03-11T01:02:38;6.10;76.70
47779;DHT22;33538;48.432;11.350;2023-03-11T01:05:05;6.10;76.80
47779;DHT22;33538;48.432;11.350;2023-03-11T01:07:34;6.00;76.90
47779;DHT22;33538;48.432;11.350;2023-03-11T01:10:01;6.00;77.10
47779;DHT22;33538;48.432;11.350;2023-03-11T01:12:28;5.90;77.20
47779;DHT22;33538;48.432;11.350;2023-03-11T01:14:54;5.90;77.20
47779;DHT22;33538;48.432;11.350;2023-03-11T01:17:21;5.90;77.60
47779;DHT22;33538;48.432;11.350;2023-03-11T01:19:48;5.90;77.30
47779;DHT22;33538;48.432;11.350;2023-03-11T01:22:15;5.90;77.10
47779;DHT22;33538;48.432;11.350;2023-03-11T01:24:43;5.90;77.20
47779;DHT22;33538;48.432;11.350;2023-03-11T01:27:10;5.90;77.10
47779;DHT22;33538;48.432;11.350;2023-03-11T01:29:37;5.90;77.00
47779;DHT22;33538;48.432;11.350;2023-03-11T01:32:04;5.80;76.70
47779;DHT22;33538;48.432;11.350;2023-03-11T01:34:31;5.80;76.80
47779;DHT22;33538;48.432;11.350;2023-03-11T01:36:58;5.80;76.90
47779;DHT22;33538;48.432;11.350;2023-03-11T01:39:24;5.70;76.80
47779;DHT22;33538;48.432;11.350;2023-03-11T01:41:53;5.70;77.30
47779;DHT22;33538;48.432;11.350;2023-03-11T01:44:20;5.70;77.20
47779;DHT22;33538;48.432;11.350;2023-03-11T01:49:51;5.70;77.20
47779;DHT22;33538;48.432;11.350;2023-03-11T01:52:18;5.70;77.30
47779;DHT22;33538;48.432;11.350;2023-03-11T01:54:45;5.70;76.80
47779;DHT22;33538;48.432;11.350;2023-03-11T01:57:13;5.70;76.90
47779;DHT22;33538;48.432;11.350;2023-03-11T01:59:43;5.60;76.70
47779;DHT22;33538;48.432;11.350;2023-03-11T02:02:17;5.60;76.60
47779;DHT22;33538;48.432;11.350;2023-03-11T02:04:45;5.50;77.10
47779;DHT22;33538;48.432;11.350;2023-03-11T02:07:13;5.50;77.10
47779;DHT22;33538;48.432;11.350;2023-03-11T02:09:40;5.60;77.10
47779;DHT22;33538;48.432;11.350;2023-03-11T02:12:08;5.60;76.60
47779;DHT22;33538;48.432;11.350;2023-03-11T02:14:39;5.40;76.30
47779;DHT22;33538;48.432;11.350;2023-03-11T02:17:08;5.40;76.90
47779;DHT22;33538;48.432;11.350;2023-03-11T02:19:42;5.40;76.70
47779;DHT22;33538;48.432;11.350;2023-03-11T02:22:12;5.50;76.60
47779;DHT22;33538;48.432;11.350;2023-03-11T02:24:43;5.40;76.70
47779;DHT22;33538;48.432;11.350;2023-03-11T02:27:13;5.40;76.60
47779;DHT22;33538;48.432;11.350;2023-03-11T02:29:42;5.50;76.50
47779;DHT22;33538;48.432;11.350;2023-03-11T02:32:10;5.40;75.80
47779;DHT22;33538;48.432;11.350;2023-03-11T02:34:38;5.40;75.60
47779;DHT22;33538;48.432;11.350;2023-03-11T02:37:06;5.40;75.30
47779;DHT22;33538;48.432;11.350;2023-03-11T02:39:35;5.40;75.60
47779;DHT22;33538;48.432;11.350;2023-03-11T02:42:05;5.40;75.50
47779;DHT22;33538;48.432;11.350;2023-03-11T02:44:34;5.40;75.40
47779;DHT22;33538;48.432;11.350;2023-03-11T02:47:01;5.40;75.20
47779;DHT22;33538;48.432;11.350;2023-03-11T02:49:28;5.40;75.00
47779;DHT22;33538;48.432;11.350;2023-03-11T02:51:56;5.30;75.40
47779;DHT22;33538;48.432;11.350;2023-03-11T02:54:22;5.30;75.50
47779;DHT22;33538;48.432;11.350;2023-03-11T02:56:49;5.30;75.50
47779;DHT22;33538;48.432;11.350;2023-03-11T02:59:16;5.30;75.50
47779;DHT22;33538;48.432;11.350;2023-03-11T03:01:44;5.30;75.40
47779;DHT22;33538;48.432;11.350;2023-03-11T03:04:11;5.30;75.30
47779;DHT22;33538;48.432;11.350;2023-03-11T03:06:37;5.20;75.20
47779;DHT22;33538;48.432;11.350;2023-03-11T03:09:04;5.30;75.50
47779;DHT22;33538;48.432;11.350;2023-03-11T03:11:31;5.30;75.50
47779;DHT22;33538;48.432;11.350;2023-03-11T03:13:58;5.30;75.30
47779;DHT22;33538;48.432;11.350;2023-03-11T03:16:24;5.20;75.30
47779;DHT22;33538;48.432;11.350;2023-03-11T03:18:53;5.20;75.10
47779;DHT22;33538;48.432;11.350;2023-03-11T03:21:20;5.20;75.00
47779;DHT22;33538;48.432;11.350;2023-03-11T03:23:47;5.20;75.20
47779;DHT22;33538;48.432;11.350;2023-03-11T03:26:13;5.20;75.30
47779;DHT22;33538;48.432;11.350;2023-03-11T03:28:40;5.20;76.10
47779;DHT22;33538;48.432;11.350;2023-03-11T03:31:08;5.10;75.20
47779;DHT22;33538;48.432;11.350;2023-03-11T03:33:35;5.10;75.30
47779;DHT22;33538;48.432;11.350;2023-03-11T03:36:07;5.10;75.30
47779;DHT22;33538;48.432;11.350;2023-03-11T03:38:34;5.10;75.10
47779;DHT22;33538;48.432;11.350;2023-03-11T03:41:01;5.10;75.30
47779;DHT22;33538;48.432;11.350;2023-03-11T03:43:27;5.10;75.20
47779;DHT22;33538;48.432;11.350;2023-03-11T03:45:55;5.10;75.10
47779;DHT22;33538;48.432;11.350;2023-03-11T03:48:22;5.10;75.10
47779;DHT22;33538;48.432;11.350;2023-03-11T03:50:49;5.10;75.10
47779;DHT22;33538;48.432;11.350;2023-03-11T03:53:17;5.00;75.00
47779;DHT22;33538;48.432;11.350;2023-03-11T03:55:44;4.90;74.90
47779;DHT22;33538;48.432;11.350;2023-03-11T03:58:10;4.90;74.70
47779;DHT22;33538;48.432;11.350;2023-03-11T04:00:37;4.90;75.30
47779;DHT22;33538;48.432;11.350;2023-03-11T04:03:04;4.90;75.30
47779;DHT22;33538;48.432;11.350;2023-03-11T04:05:31;4.80;75.40
47779;DHT22;33538;48.432;11.350;2023-03-11T04:07:58;4.80;75.60
47779;DHT22;33538;48.432;11.350;2023-03-11T04:10:26;4.90;75.60
47779;DHT22;33538;48.432;11.350;2023-03-11T04:12:53;4.90;75.60
47779;DHT22;33538;48.432;11.350;2023-03-11T04:15:20;4.70;75.50
47779;DHT22;33538;48.432;11.350;2023-03-11T04:17:46;4.40;76.20
47779;DHT22;33538;48.432;11.350;2023-03-11T04:20:13;4.30;77.30
47779;DHT22;33538;48.432;11.350;2023-03-11T04:22:40;4.20;77.90
47779;DHT22;33538;48.432;11.350;2023-03-11T04:25:07;4.10;77.90
47779;DHT22;33538;48.432;11.350;2023-03-11T04:27:35;4.00;77.40
47779;DHT22;33538;48.432;11.350;2023-03-11T04:30:02;4.10;77.50
47779;DHT22;33538;48.432;11.350;2023-03-11T04:32:29;4.00;77.40
47779;DHT22;33538;48.432;11.350;2023-03-11T04:34:56;4.00;77.50
47779;DHT22;33538;48.432;11.350;2023-03-11T04:37:26;4.00;77.40
47779;DHT22;33538;48.432;11.350;2023-03-11T04:39:53;4.00;77.20
47779;DHT22;33538;48.432;11.350;2023-03-11T04:42:20;4.00;77.20
47779;DHT22;33538;48.432;11.350;2023-03-11T04:44:48;4.00;77.10
47779;DHT22;33538;48.432;11.350;2023-03-11T04:47:15;4.10;76.80
47779;DHT22;33538;48.432;11.350;2023-03-11T04:49:41;4.00;77.20
47779;DHT22;33538;48.432;11.350;2023-03-11T04:52:08;4.00;76.40
47779;DHT22;33538;48.432;11.350;2023-03-11T04:54:35;3.90;76.40
47779;DHT22;33538;48.432;11.350;2023-03-11T04:57:02;4.00;76.60
47779;DHT22;33538;48.432;11.350;2023-03-11T04:59:28;4.00;76.60
47779;DHT22;33538;48.432;11.350;2023-03-11T05:01:56;4.00;76.20
47779;DHT22;33538;48.432;11.350;2023-03-11T05:04:23;3.90;76.40
47779;DHT22;33538;48.432;11.350;2023-03-11T05:06:50;3.90;76.60
47779;DHT22;33538;48.432;11.350;2023-03-11T05:09:17;3.90;76.90
47779;DHT22;33538;48.432;11.350;2023-03-11T05:11:44;3.90;76.70
47779;DHT22;33538;48.432;11.350;2023-03-11T05:14:10;3.90;76.90
47779;DHT22;33538;48.432;11.350;2023-03-11T05:16:37;3.90;76.40
47779;DHT22;33538;48.432;11.350;2023-03-11T05:19:05;3.90;76.40
47779;DHT22;33538;48.432;11.350;2023-03-11T05:21:32;4.00;77.00
47779;DHT22;33538;48.432;11.350;2023-03-11T05:23:59;3.90;76.80
47779;DHT22;33538;48.432;11.350;2023-03-11T05:26:25;3.90;76.70
47779;DHT22;33538;48.432;11.350;2023-03-11T05:28:52;3.80;76.10
47779;DHT22;33538;48.432;11.350;2023-03-11T05:31:19;3.80;77.60
47779;DHT22;33538;48.432;11.350;2023-03-11T05:33:46;3.80;77.10
47779;DHT22;33538;48.432;11.350;2023-03-11T05:36:14;3.80;77.00
47779;DHT22;33538;48.432;11.350;2023-03-11T05:38:40;3.80;77.00
47779;DHT22;33538;48.432;11.350;2023-03-11T05:41:07;3.80;77.00
47779;DHT22;33538;48.432;11.350;2023-03-11T05:43:34;3.70;77.20
47779;DHT22;33538;48.432;11.350;2023-03-11T05:46:00;3.70;77.30
47779;DHT22;33538;48.432;11.350;2023-03-11T05:48:27;3.70;77.50
47779;DHT22;33538;48.432;11.350;2023-03-11T05:50:54;3.60;77.40
47779;DHT22;33538;48.432;11.350;2023-03-11T05:53:22;3.60;77.70
47779;DHT22;33538;48.432;11.350;2023-03-11T05:55:55;3.60;77.50
47779;DHT22;33538;48.432;11.350;2023-03-11T05:58:22;3.60;77.40
47779;DHT22;33538;48.432;11.350;2023-03-11T06:00:48;3.50;76.80
47779;DHT22;33538;48.432;11.350;2023-03-11T06:03:15;3.50;77.20
47779;DHT22;33538;48.432;11.350;2023-03-11T06:05:44;3.50;77.90
47779;DHT22;33538;48.432;11.350;2023-03-11T06:08:10;3.50;77.40
47779;DHT22;33538;48.432;11.350;2023-03-11T06:10:39;3.60;77.30
47779;DHT22;33538;48.432;11.350;2023-03-11T06:13:06;3.60;77.00
47779;DHT22;33538;48.432;11.350;2023-03-11T06:15:33;3.50;77.70
47779;DHT22;33538;48.432;11.350;2023-03-11T06:17:59;3.50;77.10
47779;DHT22;33538;48.432;11.350;2023-03-11T06:20:26;3.60;77.60
47779;DHT22;33538;48.432;11.350;2023-03-11T06:22:53;3.50;77.50
47779;DHT22;33538;48.432;11.350;2023-03-11T06:25:20;3.50;77.30
47779;DHT22;33538;48.432;11.350;2023-03-11T06:27:49;3.60;77.50
47779;DHT22;33538;48.432;11.350;2023-03-11T06:30:17;3.60;77.40
47779;DHT22;33538;48.432;11.350;2023-03-11T06:32:44;3.60;77.00
47779;DHT22;33538;48.432;11.350;2023-03-11T06:35:12;3.60;77.20
47779;DHT22;33538;48.432;11.350;2023-03-11T06:37:39;3.60;77.40
47779;DHT22;33538;48.432;11.350;2023-03-11T06:40:07;3.50;77.50
47779;DHT22;33538;48.432;11.350;2023-03-11T06:42:35;3.60;78.40
47779;DHT22;33538;48.432;11.350;2023-03-11T06:45:04;3.60;77.60
47779;DHT22;33538;48.432;11.350;2023-03-11T06:47:31;3.60;77.30
47779;DHT22;33538;48.432;11.350;2023-03-11T06:49:58;3.60;77.40
47779;DHT22;33538;48.432;11.350;2023-03-11T06:52:25;3.60;77.40
47779;DHT22;33538;48.432;11.350;2023-03-11T06:54:51;3.60;77.30
47779;DHT22;33538;48.432;11.350;2023-03-11T06:57:18;3.60;77.30
47779;DHT22;33538;48.432;11.350;2023-03-11T06:59:45;3.50;77.50
47779;DHT22;33538;48.432;11.350;2023-03-11T07:02:13;3.50;77.70
47779;DHT22;33538;48.432;11.350;2023-03-11T07:04:40;3.40;77.40
47779;DHT22;33538;48.432;11.350;2023-03-11T07:07:07;3.50;77.50
47779;DHT22;33538;48.432;11.350;2023-03-11T07:09:34;3.50;77.70
47779;DHT22;33538;48.432;11.350;2023-03-11T07:12:00;3.50;77.70
47779;DHT22;33538;48.432;11.350;2023-03-11T07:14:27;3.50;77.90
47779;DHT22;33538;48.432;11.350;2023-03-11T07:16:54;3.50;77.70
47779;DHT22;33538;48.432;11.350;2023-03-11T07:19:22;3.60;77.80
47779;DHT22;33538;48.432;11.350;2023-03-11T07:21:49;3.50;77.20
47779;DHT22;33538;48.432;11.350;2023-03-11T07:24:15;3.60;77.20
47779;DHT22;33538;48.432;11.350;2023-03-11T07:26:43;3.60;77.50
47779;DHT22;33538;48.432;11.350;2023-03-11T07:29:10;3.70;77.10
47779;DHT22;33538;48.432;11.350;2023-03-11T07:31:37;3.70;77.00
47779;DHT22;33538;48.432;11.350;2023-03-11T07:34:05;3.80;77.30
47779;DHT22;33538;48.432;11.350;2023-03-11T07:36:33;3.80;77.10
47779;DHT22;33538;48.432;11.350;2023-03-11T07:39:03;3.90;77.00
47779;DHT22;33538;48.432;11.350;2023-03-11T07:41:32;4.00;76.90
47779;DHT22;33538;48.432;11.350;2023-03-11T07:44:00;4.00;76.60
47779;DHT22;33538;48.432;11.350;2023-03-11T07:46:28;4.00;76.30
47779;DHT22;33538;48.432;11.350;2023-03-11T07:48:55;4.00;76.30
47779;DHT22;33538;48.432;11.350;2023-03-11T07:51:24;4.00;76.10
47779;DHT22;33538;48.432;11.350;2023-03-11T07:53:54;4.10;76.30
47779;DHT22;33538;48.432;11.350;2023-03-11T07:56:24;4.20;76.20
47779;DHT22;33538;48.432;11.350;2023-03-11T07:58:52;4.20;75.70
47779;DHT22;33538;48.432;11.350;2023-03-11T08:01:21;4.20;76.20
47779;DHT22;33538;48.432;11.350;2023-03-11T08:03:50;4.10;76.30
47779;DHT22;33538;48.432;11.350;2023-03-11T08:06:19;4.20;75.90
47779;DHT22;33538;48.432;11.350;2023-03-11T08:08:46;4.30;76.60
47779;DHT22;33538;48.432;11.350;2023-03-11T08:11:15;4.30;76.30
47779;DHT22;33538;48.432;11.350;2023-03-11T08:13:44;4.40;76.50
47779;DHT22;33538;48.432;11.350;2023-03-11T08:16:13;4.40;75.50
47779;DHT22;33538;48.432;11.350;2023-03-11T08:18:40;4.50;75.20
47779;DHT22;33538;48.432;11.350;2023-03-11T08:21:09;4.40;74.60
47779;DHT22;33538;48.432;11.350;2023-03-11T08:23:37;4.20;74.80
47779;DHT22;33538;48.432;11.350;2023-03-11T08:26:04;4.20;75.00
47779;DHT22;33538;48.432;11.350;2023-03-11T08:28:33;4.30;75.60
47779;DHT22;33538;48.432;11.350;2023-03-11T08:31:00;4.30;76.10
47779;DHT22;33538;48.432;11.350;2023-03-11T08:33:27;4.50;76.60
47779;DHT22;33538;48.432;11.350;2023-03-11T08:35:54;4.50;76.20
47779;DHT22;33538;48.432;11.350;2023-03-11T08:38:21;4.60;76.30
47779;DHT22;33538;48.432;11.350;2023-03-11T08:40:48;4.70;76.20
47779;DHT22;33538;48.432;11.350;2023-03-11T08:43:14;4.80;76.10
47779;DHT22;33538;48.432;11.350;2023-03-11T08:45:42;4.80;75.90
47779;DHT22;33538;48.432;11.350;2023-03-11T08:48:10;4.90;76.10
47779;DHT22;33538;48.432;11.350;2023-03-11T08:50:39;4.90;76.00
47779;DHT22;33538;48.432;11.350;2023-03-11T08:53:19;4.90;76.00
47779;DHT22;33538;48.432;11.350;2023-03-11T08:55:46;4.90;76.00
47779;DHT22;33538;48.432;11.350;2023-03-11T08:58:13;4.80;76.10
47779;DHT22;33538;48.432;11.350;2023-03-11T09:00:40;4.70;75.50
47779;DHT22;33538;48.432;11.350;2023-03-11T09:03:08;4.70;75.90
47779;DHT22;33538;48.432;11.350;2023-03-11T09:05:34;4.80;76.10
47779;DHT22;33538;48.432;11.350;2023-03-11T09:08:01;4.80;75.90
47779;DHT22;33538;48.432;11.350;2023-03-11T09:10:31;4.70;75.90
47779;DHT22;33538;48.432;11.350;2023-03-11T09:12:58;4.70;76.50
47779;DHT22;33538;48.432;11.350;2023-03-11T09:15:24;4.70;75.90
47779;DHT22;33538;48.432;11.350;2023-03-11T09:17:51;4.70;75.80
47779;DHT22;33538;48.432;11.350;2023-03-11T09:20:20;4.70;76.30
47779;DHT22;33538;48.432;11.350;2023-03-11T09:22:46;4.80;76.70
47779;DHT22;33538;48.432;11.350;2023-03-11T09:25:14;4.80;76.90
47779;DHT22;33538;48.432;11.350;2023-03-11T09:27:41;4.90;76.80
47779;DHT22;33538;48.432;11.350;2023-03-11T09:30:09;4.90;76.90
47779;DHT22;33538;48.432;11.350;2023-03-11T09:32:36;4.90;76.60
47779;DHT22;33538;48.432;11.350;2023-03-11T09:35:03;4.90;76.70
47779;DHT22;33538;48.432;11.350;2023-03-11T09:37:32;5.00;76.90
47779;DHT22;33538;48.432;11.350;2023-03-11T09:39:58;5.00;76.90
47779;DHT22;33538;48.432;11.350;2023-03-11T09:42:32;5.00;76.80
47779;DHT22;33538;48.432;11.350;2023-03-11T09:45:03;5.00;76.80
47779;DHT22;33538;48.432;11.350;2023-03-11T09:47:37;5.10;77.00
47779;DHT22;33538;48.432;11.350;2023-03-11T09:50:19;5.00;76.90
47779;DHT22;33538;48.432;11.350;2023-03-11T09:52:57;5.00;76.90
47779;DHT22;33538;48.432;11.350;2023-03-11T09:55:38;5.10;77.20
47779;DHT22;33538;48.432;11.350;2023-03-11T09:58:16;5.10;77.10
47779;DHT22;33538;48.432;11.350;2023-03-11T10:00:46;5.10;77.00
47779;DHT22;33538;48.432;11.350;2023-03-11T10:03:24;5.10;77.30
47779;DHT22;33538;48.432;11.350;2023-03-11T10:05:55;5.10;77.30
47779;DHT22;33538;48.432;11.350;2023-03-11T10:08:30;5.10;75.40
47779;DHT22;33538;48.432;11.350;2023-03-11T10:11:02;5.00;75.90
47779;DHT22;33538;48.432;11.350;2023-03-11T10:13:36;5.10;75.60
47779;DHT22;33538;48.432;11.350;2023-03-11T10:16:13;5.00;76.10
47779;DHT22;33538;48.432;11.350;2023-03-11T10:18:53;5.00;76.00
47779;DHT22;33538;48.432;11.350;2023-03-11T10:21:33;5.00;75.50
47779;DHT22;33538;48.432;11.350;2023-03-11T10:24:13;5.00;75.70
47779;DHT22;33538;48.432;11.350;2023-03-11T10:26:44;5.00;75.50
47779;DHT22;33538;48.432;11.350;2023-03-11T10:29:16;4.90;75.50
47779;DHT22;33538;48.432;11.350;2023-03-11T10:31:49;5.00;75.80
47779;DHT22;33538;48.432;11.350;2023-03-11T10:34:25;5.00;76.20
47779;DHT22;33538;48.432;11.350;2023-03-11T10:36:57;4.90;75.30
47779;DHT22;33538;48.432;11.350;2023-03-11T10:39:26;4.90;76.20
47779;DHT22;33538;48.432;11.350;2023-03-11T10:41:54;4.90;76.30
47779;DHT22;33538;48.432;11.350;2023-03-11T10:44:26;4.90;76.50
47779;DHT22;33538;48.432;11.350;2023-03-11T10:46:54;4.90;76.00
47779;DHT22;33538;48.432;11.350;2023-03-11T10:49:20;4.90;76.40
47779;DHT22;33538;48.432;11.350;2023-03-11T10:51:49;4.80;76.40
47779;DHT22;33538;48.432;11.350;2023-03-11T10:54:26;4.80;77.00
47779;DHT22;33538;48.432;11.350;2023-03-11T10:56:56;4.80;77.60
47779;DHT22;33538;48.432;11.350;2023-03-11T10:59:26;4.90;77.70
47779;DHT22;33538;48.432;11.350;2023-03-11T11:01:55;4.80;77.20
47779;DHT22;33538;48.432;11.350;2023-03-11T11:04:29;4.90;77.30
47779;DHT22;33538;48.432;11.350;2023-03-11T11:06:56;4.80;77.40
47779;DHT22;33538;48.432;11.350;2023-03-11T11:09:24;4.80;77.60
47779;DHT22;33538;48.432;11.350;2023-03-11T11:12:05;4.80;77.50
47779;DHT22;33538;48.432;11.350;2023-03-11T11:14:45;4.90;77.70
47779;DHT22;33538;48.432;11.350;2023-03-11T11:17:18;4.90;77.60
47779;DHT22;33538;48.432;11.350;2023-03-11T11:19:45;4.80;77.40
47779;DHT22;33538;48.432;11.350;2023-03-11T11:22:16;4.90;77.90
47779;DHT22;33538;48.432;11.350;2023-03-11T11:24:44;4.90;77.70
47779;DHT22;33538;48.432;11.350;2023-03-11T11:27:18;4.90;77.50
47779;DHT22;33538;48.432;11.350;2023-03-11T11:29:46;4.90;77.90
47779;DHT22;33538;48.432;11.350;2023-03-11T11:32:20;4.90;77.60
47779;DHT22;33538;48.432;11.350;2023-03-11T11:34:57;4.90;77.90
47779;DHT22;33538;48.432;11.350;2023-03-11T11:37:25;5.00;77.40
47779;DHT22;33538;48.432;11.350;2023-03-11T11:39:53;5.00;77.20
47779;DHT22;33538;48.432;11.350;2023-03-11T11:42:24;5.00;77.60
47779;DHT22;33538;48.432;11.350;2023-03-11T11:44:55;4.90;78.40
47779;DHT22;33538;48.432;11.350;2023-03-11T11:47:24;4.90;77.00
47779;DHT22;33538;48.432;11.350;2023-03-11T11:49:55;5.00;77.40
47779;DHT22;33538;48.432;11.350;2023-03-11T11:52:24;5.00;77.40
47779;DHT22;33538;48.432;11.350;2023-03-11T11:54:55;5.00;77.70
47779;DHT22;33538;48.432;11.350;2023-03-11T11:57:25;5.00;77.40
47779;DHT22;33538;48.432;11.350;2023-03-11T11:59:52;5.10;77.60
47779;DHT22;33538;48.432;11.350;2023-03-11T12:02:37;5.00;77.30
47779;DHT22;33538;48.432;11.350;2023-03-11T12:05:15;5.00;76.60
47779;DHT22;33538;48.432;11.350;2023-03-11T12:07:54;5.00;77.00
47779;DHT22;33538;48.432;11.350;2023-03-11T12:10:27;5.00;76.60
47779;DHT22;33538;48.432;11.350;2023-03-11T12:13:23;5.00;77.10
47779;DHT22;33538;48.432;11.350;2023-03-11T12:15:56;5.10;77.00
47779;DHT22;33538;48.432;11.350;2023-03-11T12:18:28;5.10;76.90
47779;DHT22;33538;48.432;11.350;2023-03-11T12:20:58;5.10;76.90
47779;DHT22;33538;48.432;11.350;2023-03-11T12:23:36;5.10;76.10
47779;DHT22;33538;48.432;11.350;2023-03-11T12:26:15;5.20;77.90
47779;DHT22;33538;48.432;11.350;2023-03-11T12:28:49;5.20;76.90
47779;DHT22;33538;48.432;11.350;2023-03-11T12:31:19;5.20;77.30
47779;DHT22;33538;48.432;11.350;2023-03-11T12:33:47;5.20;77.50
47779;DHT22;33538;48.432;11.350;2023-03-11T12:36:21;5.20;77.20
47779;DHT22;33538;48.432;11.350;2023-03-11T12:38:50;5.20;76.80
47779;DHT22;33538;48.432;11.350;2023-03-11T12:41:34;5.20;77.20
47779;DHT22;33538;48.432;11.350;2023-03-11T12:44:20;5.20;77.50
47779;DHT22;33538;48.432;11.350;2023-03-11T12:47:21;5.30;77.30
47779;DHT22;33538;48.432;11.350;2023-03-11T12:49:50;5.30;77.70
47779;DHT22;33538;48.432;11.350;2023-03-11T12:52:23;5.30;77.80
47779;DHT22;33538;48.432;11.350;2023-03-11T12:55:22;5.30;77.70
47779;DHT22;33538;48.432;11.350;2023-03-11T12:57:54;5.30;77.20
47779;DHT22;33538;48.432;11.350;2023-03-11T13:00:46;5.30;78.10
47779;DHT22;33538;48.432;11.350;2023-03-11T13:03:36;5.40;77.50
47779;DHT22;33538;48.432;11.350;2023-03-11T13:06:28;5.40;78.20
47779;DHT22;33538;48.432;11.350;2023-03-11T13:08:58;5.40;78.40
47779;DHT22;33538;48.432;11.350;2023-03-11T13:11:36;5.40;78.50
47779;DHT22;33538;48.432;11.350;2023-03-11T13:14:09;5.40;78.50
47779;DHT22;33538;48.432;11.350;2023-03-11T13:16:43;5.50;77.40
47779;DHT22;33538;48.432;11.350;2023-03-11T13:19:33;5.50;78.00
47779;DHT22;33538;48.432;11.350;2023-03-11T13:22:03;5.50;77.00
47779;DHT22;33538;48.432;11.350;2023-03-11T13:24:49;5.50;78.00
47779;DHT22;33538;48.432;11.350;2023-03-11T13:27:32;5.50;78.20
47779;DHT22;33538;48.432;11.350;2023-03-11T13:30:05;5.50;77.80
47779;DHT22;33538;48.432;11.350;2023-03-11T13:33:06;5.50;75.70
47779;DHT22;33538;48.432;11.350;2023-03-11T13:35:44;5.50;76.60
47779;DHT22;33538;48.432;11.350;2023-03-11T13:38:52;5.50;76.70
47779;DHT22;33538;48.432;11.350;2023-03-11T13:41:28;5.60;76.60
47779;DHT22;33538;48.432;11.350;2023-03-11T13:43:59;5.60;77.60
47779;DHT22;33538;48.432;11.350;2023-03-11T13:46:30;5.60;77.60
47779;DHT22;33538;48.432;11.350;2023-03-11T13:49:05;5.50;78.00
47779;DHT22;33538;48.432;11.350;2023-03-11T13:51:36;5.60;78.30
47779;DHT22;33538;48.432;11.350;2023-03-11T13:54:23;5.60;78.60
47779;DHT22;33538;48.432;11.350;2023-03-11T13:56:56;5.60;78.70
47779;DHT22;33538;48.432;11.350;2023-03-11T13:59:26;5.70;78.00
47779;DHT22;33538;48.432;11.350;2023-03-11T14:01:55;5.60;78.60
47779;DHT22;33538;48.432;11.350;2023-03-11T14:04:26;5.70;77.20
47779;DHT22;33538;48.432;11.350;2023-03-11T14:06:53;5.70;77.70
47779;DHT22;33538;48.432;11.350;2023-03-11T14:09:22;5.70;77.30
47779;DHT22;33538;48.432;11.350;2023-03-11T14:11:51;5.70;77.70
47779;DHT22;33538;48.432;11.350;2023-03-11T14:14:34;5.70;77.50
47779;DHT22;33538;48.432;11.350;2023-03-11T14:17:05;5.80;75.70
47779;DHT22;33538;48.432;11.350;2023-03-11T14:19:35;5.90;74.80
47779;DHT22;33538;48.432;11.350;2023-03-11T14:22:07;5.90;75.80
47779;DHT22;33538;48.432;11.350;2023-03-11T14:24:34;5.80;76.70
47779;DHT22;33538;48.432;11.350;2023-03-11T14:27:05;5.80;76.60
47779;DHT22;33538;48.432;11.350;2023-03-11T14:29:34;5.80;77.40
47779;DHT22;33538;48.432;11.350;2023-03-11T14:32:15;5.70;77.80
47779;DHT22;33538;48.432;11.350;2023-03-11T14:34:44;5.70;77.50
47779;DHT22;33538;48.432;11.350;2023-03-11T14:37:24;5.70;76.00
47779;DHT22;33538;48.432;11.350;2023-03-11T14:39:51;5.80;76.00
47779;DHT22;33538;48.432;11.350;2023-03-11T14:42:23;5.80;77.70
47779;DHT22;33538;48.432;11.350;2023-03-11T14:44:54;5.80;77.50
47779;DHT22;33538;48.432;11.350;2023-03-11T14:47:29;5.80;77.80
47779;DHT22;33538;48.432;11.350;2023-03-11T14:49:59;5.80;78.50
47779;DHT22;33538;48.432;11.350;2023-03-11T14:52:32;5.80;77.10
47779;DHT22;33538;48.432;11.350;2023-03-11T14:55:01;5.80;77.80
47779;DHT22;33538;48.432;11.350;2023-03-11T14:57:36;5.90;75.30
47779;DHT22;33538;48.432;11.350;2023-03-11T15:00:04;5.80;77.40
47779;DHT22;33538;48.432;11.350;2023-03-11T15:02:40;5.90;74.90
47779;DHT22;33538;48.432;11.350;2023-03-11T15:05:16;5.90;74.90
47779;DHT22;33538;48.432;11.350;2023-03-11T15:07:45;5.90;75.30
47779;DHT22;33538;48.432;11.350;2023-03-11T15:10:13;5.90;75.40
47779;DHT22;33538;48.432;11.350;2023-03-11T15:12:41;5.90;75.30
47779;DHT22;33538;48.432;11.350;2023-03-11T15:15:24;5.90;76.10
47779;DHT22;33538;48.432;11.350;2023-03-11T15:17:52;5.90;76.70
47779;DHT22;33538;48.432;11.350;2023-03-11T15:20:26;5.90;76.50
47779;DHT22;33538;48.432;11.350;2023-03-11T15:22:54;5.90;76.40
47779;DHT22;33538;48.432;11.350;2023-03-11T15:25:23;5.90;74.00
47779;DHT22;33538;48.432;11.350;2023-03-11T15:27:50;5.90;75.90
47779;DHT22;33538;48.432;11.350;2023-03-11T15:30:19;5.90;76.00
47779;DHT22;33538;48.432;11.350;2023-03-11T15:32:46;5.90;76.10
47779;DHT22;33538;48.432;11.350;2023-03-11T15:35:17;5.90;76.80
47779;DHT22;33538;48.432;11.350;2023-03-11T15:37:46;5.90;77.30
47779;DHT22;33538;48.432;11.350;2023-03-11T15:40:21;5.90;77.70
47779;DHT22;33538;48.432;11.350;2023-03-11T15:43:20;5.90;76.70
47779;DHT22;33538;48.432;11.350;2023-03-11T15:45:46;5.90;76.50
47779;DHT22;33538;48.432;11.350;2023-03-11T15:48:13;5.90;75.90
47779;DHT22;33538;48.432;11.350;2023-03-11T15:50:46;5.80;77.00